sensor_id;sensor_type;location;lat;lon;timestamp;P1;durP1;ratioP1;P2;durP2;ratioP2
45007;SDS011;30743;52.008;5.644;2024-03-07T00:00:01;34.97;;;21.45;;
45007;SDS011;30743;52.008;5.644;2024-03-07T00:02:46;34.28;;;20.77;;
45007;SDS011;30743;52.008;5.644;2024-03-07T00:05:13;37.58;;;21.67;;
45007;SDS011;30743;52.008;5.644;2024-03-07T00:07:39;37.15;;;21.48;;
45007;SDS011;30743;52.008;5.644;2024-03-07T00:10:05;32.10;;;19.98;;
45007;SDS011;30743;52.008;5.644;2024-03-07T00:12:35;41.03;;;20.70;;
45007;SDS011;30743;52.008;5.644;2024-03-07T00:15:04;35.95;;;21.00;;
45007;SDS011;30743;52.008;5.644;2024-03-07T00:17:31;34.30;;;20.70;;
45007;SDS011;30743;52.008;5.644;2024-03-07T00:19:56;33.05;;;20.02;;
45007;SDS011;30743;52.008;5.644;2024-03-07T00:22:22;34.47;;;20.33;;
45007;SDS011;30743;52.008;5.644;2024-03-07T00:24:49;38.35;;;21.48;;
45007;SDS011;30743;52.008;5.644;2024-03-07T00:27:14;34.60;;;20.27;;
45007;SDS011;30743;52.008;5.644;2024-03-07T00:29:40;37.95;;;21.70;;
45007;SDS011;30743;52.008;5.644;2024-03-07T00:32:06;36.20;;;20.50;;
45007;SDS011;30743;52.008;5.644;2024-03-07T00:34:32;35.15;;;21.58;;
45007;SDS011;30743;52.008;5.644;2024-03-07T00:36:58;35.92;;;21.67;;
45007;SDS011;30743;52.008;5.644;2024-03-07T00:39:24;35.75;;;21.08;;
45007;SDS011;30743;52.008;5.644;2024-03-07T00:41:50;34.22;;;19.88;;
45007;SDS011;30743;52.008;5.644;2024-03-07T00:44:16;34.72;;;21.92;;
45007;SDS011;30743;52.008;5.644;2024-03-07T00:46:41;35.25;;;20.45;;
45007;SDS011;30743;52.008;5.644;2024-03-07T00:49:07;36.88;;;21.45;;
45007;SDS011;30743;52.008;5.644;2024-03-07T00:51:33;33.63;;;20.88;;
45007;SDS011;30743;52.008;5.644;2024-03-07T00:53:58;37.40;;;22.15;;
45007;SDS011;30743;52.008;5.644;2024-03-07T00:56:24;34.50;;;20.55;;
45007;SDS011;30743;52.008;5.644;2024-03-07T00:58:50;36.13;;;21.25;;
45007;SDS011;30743;52.008;5.644;2024-03-07T01:01:16;37.58;;;22.55;;
45007;SDS011;30743;52.008;5.644;2024-03-07T01:03:45;34.30;;;20.75;;
45007;SDS011;30743;52.008;5.644;2024-03-07T01:06:11;32.80;;;20.20;;
45007;SDS011;30743;52.008;5.644;2024-03-07T01:08:37;40.08;;;22.95;;
45007;SDS011;30743;52.008;5.644;2024-03-07T01:11:03;43.10;;;23.52;;
45007;SDS011;30743;52.008;5.644;2024-03-07T01:13:37;37.85;;;22.80;;
45007;SDS011;30743;52.008;5.644;2024-03-07T01:16:03;41.15;;;24.52;;
45007;SDS011;30743;52.008;5.644;2024-03-07T01:18:29;37.97;;;23.48;;
45007;SDS011;30743;52.008;5.644;2024-03-07T01:20:55;40.15;;;23.63;;
45007;SDS011;30743;52.008;5.644;2024-03-07T01:23:21;41.40;;;23.02;;
45007;SDS011;30743;52.008;5.644;2024-03-07T01:25:46;40.05;;;23.60;;
45007;SDS011;30743;52.008;5.644;2024-03-07T01:28:12;38.75;;;22.77;;
45007;SDS011;30743;52.008;5.644;2024-03-07T01:30:39;38.35;;;22.35;;
45007;SDS011;30743;52.008;5.644;2024-03-07T01:33:04;38.35;;;22.83;;
45007;SDS011;30743;52.008;5.644;2024-03-07T01:35:30;39.38;;;22.23;;
45007;SDS011;30743;52.008;5.644;2024-03-07T01:37:55;39.38;;;22.58;;
45007;SDS011;30743;52.008;5.644;2024-03-07T01:40:21;36.45;;;22.55;;
45007;SDS011;30743;52.008;5.644;2024-03-07T01:42:50;37.60;;;21.52;;
45007;SDS011;30743;52.008;5.644;2024-03-07T01:45:16;33.40;;;20.77;;
45007;SDS011;30743;52.008;5.644;2024-03-07T01:47:44;34.33;;;20.80;;
45007;SDS011;30743;52.008;5.644;2024-03-07T01:50:10;34.35;;;20.52;;
45007;SDS011;30743;52.008;5.644;2024-03-07T01:52:38;38.72;;;20.88;;
45007;SDS011;30743;52.008;5.644;2024-03-07T01:55:06;32.20;;;19.77;;
45007;SDS011;30743;52.008;5.644;2024-03-07T01:57:32;31.90;;;19.75;;
45007;SDS011;30743;52.008;5.644;2024-03-07T01:59:59;32.38;;;20.05;;
45007;SDS011;30743;52.008;5.644;2024-03-07T02:02:29;29.35;;;19.70;;
45007;SDS011;30743;52.008;5.644;2024-03-07T02:04:54;28.67;;;18.25;;
45007;SDS011;30743;52.008;5.644;2024-03-07T02:07:20;30.33;;;19.60;;
45007;SDS011;30743;52.008;5.644;2024-03-07T02:09:46;34.35;;;20.38;;
45007;SDS011;30743;52.008;5.644;2024-03-07T02:12:11;29.35;;;19.10;;
45007;SDS011;30743;52.008;5.644;2024-03-07T02:14:37;38.17;;;20.25;;
45007;SDS011;30743;52.008;5.644;2024-03-07T02:17:02;34.03;;;19.70;;
45007;SDS011;30743;52.008;5.644;2024-03-07T02:19:29;37.35;;;20.95;;
45007;SDS011;30743;52.008;5.644;2024-03-07T02:21:57;36.90;;;20.90;;
45007;SDS011;30743;52.008;5.644;2024-03-07T02:24:22;30.55;;;19.70;;
45007;SDS011;30743;52.008;5.644;2024-03-07T02:26:48;37.08;;;20.65;;
45007;SDS011;30743;52.008;5.644;2024-03-07T02:29:14;38.45;;;21.27;;
45007;SDS011;30743;52.008;5.644;2024-03-07T02:31:39;37.75;;;21.80;;
45007;SDS011;30743;52.008;5.644;2024-03-07T02:34:06;32.97;;;20.75;;
45007;SDS011;30743;52.008;5.644;2024-03-07T02:36:35;39.08;;;22.60;;
45007;SDS011;30743;52.008;5.644;2024-03-07T02:39:01;36.10;;;22.38;;
45007;SDS011;30743;52.008;5.644;2024-03-07T02:41:26;34.78;;;21.27;;
45007;SDS011;30743;52.008;5.644;2024-03-07T02:43:52;39.50;;;21.58;;
45007;SDS011;30743;52.008;5.644;2024-03-07T02:46:18;35.60;;;20.67;;
45007;SDS011;30743;52.008;5.644;2024-03-07T02:48:44;36.28;;;21.90;;
45007;SDS011;30743;52.008;5.644;2024-03-07T02:51:10;36.25;;;22.27;;
45007;SDS011;30743;52.008;5.644;2024-03-07T02:53:36;37.47;;;21.08;;
45007;SDS011;30743;52.008;5.644;2024-03-07T02:56:03;34.33;;;21.20;;
45007;SDS011;30743;52.008;5.644;2024-03-07T02:58:33;38.15;;;21.70;;
45007;SDS011;30743;52.008;5.644;2024-03-07T03:00:58;34.53;;;21.35;;
45007;SDS011;30743;52.008;5.644;2024-03-07T03:03:25;39.05;;;21.83;;
45007;SDS011;30743;52.008;5.644;2024-03-07T03:05:57;33.63;;;21.60;;
45007;SDS011;30743;52.008;5.644;2024-03-07T03:08:24;34.80;;;20.77;;
45007;SDS011;30743;52.008;5.644;2024-03-07T03:10:49;32.65;;;20.27;;
45007;SDS011;30743;52.008;5.644;2024-03-07T03:13:16;36.65;;;21.73;;
45007;SDS011;30743;52.008;5.644;2024-03-07T03:15:42;35.63;;;20.27;;
45007;SDS011;30743;52.008;5.644;2024-03-07T03:18:07;39.55;;;20.50;;
45007;SDS011;30743;52.008;5.644;2024-03-07T03:20:34;35.58;;;20.85;;
45007;SDS011;30743;52.008;5.644;2024-03-07T03:23:03;32.22;;;20.05;;
45007;SDS011;30743;52.008;5.644;2024-03-07T03:25:30;32.45;;;20.10;;
45007;SDS011;30743;52.008;5.644;2024-03-07T03:27:59;31.25;;;18.60;;
45007;SDS011;30743;52.008;5.644;2024-03-07T03:30:26;33.95;;;20.73;;
45007;SDS011;30743;52.008;5.644;2024-03-07T03:32:52;38.13;;;20.88;;
45007;SDS011;30743;52.008;5.644;2024-03-07T03:35:17;36.00;;;22.10;;
45007;SDS011;30743;52.008;5.644;2024-03-07T03:37:44;34.78;;;21.67;;
45007;SDS011;30743;52.008;5.644;2024-03-07T03:40:10;36.42;;;21.30;;
45007;SDS011;30743;52.008;5.644;2024-03-07T03:42:38;34.72;;;21.58;;
45007;SDS011;30743;52.008;5.644;2024-03-07T03:45:05;38.00;;;22.50;;
45007;SDS011;30743;52.008;5.644;2024-03-07T03:47:35;38.97;;;22.95;;
45007;SDS011;30743;52.008;5.644;2024-03-07T03:50:04;34.00;;;20.60;;
45007;SDS011;30743;52.008;5.644;2024-03-07T03:52:31;36.33;;;21.73;;
45007;SDS011;30743;52.008;5.644;2024-03-07T03:54:57;37.58;;;22.63;;
45007;SDS011;30743;52.008;5.644;2024-03-07T03:57:24;40.00;;;22.55;;
45007;SDS011;30743;52.008;5.644;2024-03-07T03:59:50;41.78;;;23.00;;
45007;SDS011;30743;52.008;5.644;2024-03-07T04:02:16;38.03;;;23.17;;
45007;SDS011;30743;52.008;5.644;2024-03-07T04:04:44;40.40;;;22.80;;
45007;SDS011;30743;52.008;5.644;2024-03-07T04:07:11;37.70;;;22.77;;
45007;SDS011;30743;52.008;5.644;2024-03-07T04:09:37;39.13;;;21.50;;
45007;SDS011;30743;52.008;5.644;2024-03-07T04:12:03;43.20;;;23.45;;
45007;SDS011;30743;52.008;5.644;2024-03-07T04:14:30;37.60;;;21.25;;
45007;SDS011;30743;52.008;5.644;2024-03-07T04:16:58;41.53;;;23.02;;
45007;SDS011;30743;52.008;5.644;2024-03-07T04:19:23;42.70;;;23.13;;
45007;SDS011;30743;52.008;5.644;2024-03-07T04:21:50;39.45;;;22.48;;
45007;SDS011;30743;52.008;5.644;2024-03-07T04:24:16;41.17;;;22.48;;
45007;SDS011;30743;52.008;5.644;2024-03-07T04:26:42;38.30;;;22.48;;
45007;SDS011;30743;52.008;5.644;2024-03-07T04:29:07;39.03;;;22.70;;
45007;SDS011;30743;52.008;5.644;2024-03-07T04:31:33;42.97;;;22.80;;
45007;SDS011;30743;52.008;5.644;2024-03-07T04:33:59;45.38;;;22.85;;
45007;SDS011;30743;52.008;5.644;2024-03-07T04:36:25;45.70;;;24.38;;
45007;SDS011;30743;52.008;5.644;2024-03-07T04:38:51;37.83;;;22.73;;
45007;SDS011;30743;52.008;5.644;2024-03-07T04:41:17;41.20;;;23.77;;
45007;SDS011;30743;52.008;5.644;2024-03-07T04:43:43;41.38;;;24.15;;
45007;SDS011;30743;52.008;5.644;2024-03-07T04:46:09;43.10;;;24.23;;
45007;SDS011;30743;52.008;5.644;2024-03-07T04:48:35;41.60;;;24.05;;
45007;SDS011;30743;52.008;5.644;2024-03-07T04:51:01;41.15;;;24.55;;
45007;SDS011;30743;52.008;5.644;2024-03-07T04:53:26;47.20;;;22.85;;
45007;SDS011;30743;52.008;5.644;2024-03-07T04:55:52;38.78;;;22.33;;
45007;SDS011;30743;52.008;5.644;2024-03-07T04:58:18;41.60;;;23.73;;
45007;SDS011;30743;52.008;5.644;2024-03-07T05:00:43;44.67;;;24.63;;
45007;SDS011;30743;52.008;5.644;2024-03-07T05:03:09;37.70;;;22.35;;
45007;SDS011;30743;52.008;5.644;2024-03-07T05:05:36;38.22;;;23.63;;
45007;SDS011;30743;52.008;5.644;2024-03-07T05:08:02;39.70;;;24.30;;
45007;SDS011;30743;52.008;5.644;2024-03-07T05:10:29;39.35;;;23.33;;
45007;SDS011;30743;52.008;5.644;2024-03-07T05:12:55;42.75;;;24.33;;
45007;SDS011;30743;52.008;5.644;2024-03-07T05:15:23;41.10;;;23.33;;
45007;SDS011;30743;52.008;5.644;2024-03-07T05:17:51;43.13;;;23.95;;
45007;SDS011;30743;52.008;5.644;2024-03-07T05:20:17;36.47;;;23.17;;
45007;SDS011;30743;52.008;5.644;2024-03-07T05:22:42;40.83;;;23.92;;
45007;SDS011;30743;52.008;5.644;2024-03-07T05:25:17;41.00;;;23.60;;
45007;SDS011;30743;52.008;5.644;2024-03-07T05:27:47;40.30;;;22.63;;
45007;SDS011;30743;52.008;5.644;2024-03-07T05:30:16;43.28;;;23.25;;
45007;SDS011;30743;52.008;5.644;2024-03-07T05:32:42;42.55;;;23.55;;
45007;SDS011;30743;52.008;5.644;2024-03-07T05:35:08;43.50;;;23.98;;
45007;SDS011;30743;52.008;5.644;2024-03-07T05:37:33;42.78;;;23.92;;
45007;SDS011;30743;52.008;5.644;2024-03-07T05:39:59;41.70;;;22.98;;
45007;SDS011;30743;52.008;5.644;2024-03-07T05:42:25;43.97;;;22.95;;
45007;SDS011;30743;52.008;5.644;2024-03-07T05:44:51;41.45;;;23.83;;
45007;SDS011;30743;52.008;5.644;2024-03-07T05:47:18;40.60;;;23.48;;
45007;SDS011;30743;52.008;5.644;2024-03-07T05:49:44;42.10;;;23.73;;
45007;SDS011;30743;52.008;5.644;2024-03-07T05:52:10;40.22;;;23.33;;
45007;SDS011;30743;52.008;5.644;2024-03-07T05:54:35;40.33;;;24.30;;
45007;SDS011;30743;52.008;5.644;2024-03-07T05:57:01;39.88;;;24.10;;
45007;SDS011;30743;52.008;5.644;2024-03-07T05:59:27;44.40;;;24.98;;
45007;SDS011;30743;52.008;5.644;2024-03-07T06:01:56;39.88;;;23.83;;
45007;SDS011;30743;52.008;5.644;2024-03-07T06:04:22;45.33;;;25.83;;
45007;SDS011;30743;52.008;5.644;2024-03-07T06:06:48;44.67;;;24.35;;
45007;SDS011;30743;52.008;5.644;2024-03-07T06:09:13;44.85;;;22.42;;
45007;SDS011;30743;52.008;5.644;2024-03-07T06:11:40;41.03;;;21.50;;
45007;SDS011;30743;52.008;5.644;2024-03-07T06:14:09;38.30;;;22.42;;
45007;SDS011;30743;52.008;5.644;2024-03-07T06:16:38;40.25;;;21.20;;
45007;SDS011;30743;52.008;5.644;2024-03-07T06:19:05;41.08;;;22.60;;
45007;SDS011;30743;52.008;5.644;2024-03-07T06:24:01;40.55;;;22.35;;
45007;SDS011;30743;52.008;5.644;2024-03-07T06:26:28;39.85;;;22.67;;
45007;SDS011;30743;52.008;5.644;2024-03-07T06:29:13;38.45;;;21.90;;
45007;SDS011;30743;52.008;5.644;2024-03-07T06:31:43;38.17;;;22.30;;
45007;SDS011;30743;52.008;5.644;2024-03-07T06:34:12;42.38;;;23.15;;
45007;SDS011;30743;52.008;5.644;2024-03-07T06:36:38;36.83;;;21.73;;
45007;SDS011;30743;52.008;5.644;2024-03-07T06:39:03;36.97;;;22.70;;
45007;SDS011;30743;52.008;5.644;2024-03-07T06:41:32;37.67;;;21.53;;
45007;SDS011;30743;52.008;5.644;2024-03-07T06:43:59;36.58;;;21.80;;
45007;SDS011;30743;52.008;5.644;2024-03-07T06:46:24;36.05;;;21.67;;
45007;SDS011;30743;52.008;5.644;2024-03-07T06:48:50;40.55;;;21.73;;
45007;SDS011;30743;52.008;5.644;2024-03-07T06:51:16;38.92;;;22.33;;
45007;SDS011;30743;52.008;5.644;2024-03-07T06:53:42;37.63;;;21.95;;
45007;SDS011;30743;52.008;5.644;2024-03-07T06:56:08;34.70;;;20.88;;
45007;SDS011;30743;52.008;5.644;2024-03-07T06:58:34;34.45;;;21.00;;
45007;SDS011;30743;52.008;5.644;2024-03-07T07:00:59;34.38;;;21.30;;
45007;SDS011;30743;52.008;5.644;2024-03-07T07:03:26;34.20;;;20.88;;
45007;SDS011;30743;52.008;5.644;2024-03-07T07:05:53;32.58;;;19.83;;
45007;SDS011;30743;52.008;5.644;2024-03-07T07:08:19;33.63;;;20.45;;
45007;SDS011;30743;52.008;5.644;2024-03-07T07:10:45;33.55;;;20.20;;
45007;SDS011;30743;52.008;5.644;2024-03-07T07:13:11;31.77;;;20.13;;
45007;SDS011;30743;52.008;5.644;2024-03-07T07:15:38;30.92;;;18.10;;
45007;SDS011;30743;52.008;5.644;2024-03-07T07:18:04;27.45;;;17.35;;
45007;SDS011;30743;52.008;5.644;2024-03-07T07:20:30;33.20;;;19.75;;
45007;SDS011;30743;52.008;5.644;2024-03-07T07:22:57;29.90;;;18.77;;
45007;SDS011;30743;52.008;5.644;2024-03-07T07:25:25;29.27;;;17.92;;
45007;SDS011;30743;52.008;5.644;2024-03-07T07:27:52;29.70;;;19.60;;
45007;SDS011;30743;52.008;5.644;2024-03-07T07:30:18;25.35;;;17.60;;
45007;SDS011;30743;52.008;5.644;2024-03-07T07:35:13;25.17;;;15.77;;
45007;SDS011;30743;52.008;5.644;2024-03-07T07:37:44;24.50;;;14.88;;
45007;SDS011;30743;52.008;5.644;2024-03-07T07:40:11;27.67;;;15.63;;
45007;SDS011;30743;52.008;5.644;2024-03-07T07:42:40;19.83;;;14.07;;
45007;SDS011;30743;52.008;5.644;2024-03-07T07:45:07;20.50;;;14.55;;
45007;SDS011;30743;52.008;5.644;2024-03-07T07:47:40;21.58;;;14.25;;
45007;SDS011;30743;52.008;5.644;2024-03-07T07:50:09;20.10;;;13.13;;
45007;SDS011;30743;52.008;5.644;2024-03-07T07:52:49;15.82;;;12.20;;
45007;SDS011;30743;52.008;5.644;2024-03-07T07:55:28;15.70;;;11.38;;
45007;SDS011;30743;52.008;5.644;2024-03-07T07:57:57;18.80;;;11.70;;
45007;SDS011;30743;52.008;5.644;2024-03-07T08:00:25;16.70;;;11.25;;
45007;SDS011;30743;52.008;5.644;2024-03-07T08:02:58;15.07;;;11.35;;
45007;SDS011;30743;52.008;5.644;2024-03-07T08:05:28;13.35;;;9.70;;
45007;SDS011;30743;52.008;5.644;2024-03-07T08:07:54;12.68;;;9.80;;
45007;SDS011;30743;52.008;5.644;2024-03-07T08:10:26;12.68;;;9.63;;
45007;SDS011;30743;52.008;5.644;2024-03-07T08:12:53;13.27;;;9.10;;
45007;SDS011;30743;52.008;5.644;2024-03-07T08:15:19;13.40;;;9.32;;
45007;SDS011;30743;52.008;5.644;2024-03-07T08:17:46;12.93;;;9.50;;
45007;SDS011;30743;52.008;5.644;2024-03-07T08:20:13;11.30;;;8.43;;
45007;SDS011;30743;52.008;5.644;2024-03-07T08:22:41;11.82;;;9.73;;
45007;SDS011;30743;52.008;5.644;2024-03-07T08:25:11;11.32;;;9.15;;
45007;SDS011;30743;52.008;5.644;2024-03-07T08:27:38;11.73;;;8.90;;
45007;SDS011;30743;52.008;5.644;2024-03-07T08:30:05;12.80;;;9.10;;
45007;SDS011;30743;52.008;5.644;2024-03-07T08:32:41;10.88;;;7.95;;
45007;SDS011;30743;52.008;5.644;2024-03-07T08:35:08;10.05;;;8.73;;
45007;SDS011;30743;52.008;5.644;2024-03-07T08:37:36;9.73;;;8.00;;
45007;SDS011;30743;52.008;5.644;2024-03-07T08:40:05;10.82;;;8.20;;
45007;SDS011;30743;52.008;5.644;2024-03-07T08:42:35;11.68;;;8.82;;
45007;SDS011;30743;52.008;5.644;2024-03-07T08:45:02;9.77;;;8.43;;
45007;SDS011;30743;52.008;5.644;2024-03-07T08:47:30;9.75;;;8.15;;
45007;SDS011;30743;52.008;5.644;2024-03-07T08:49:56;10.05;;;8.02;;
45007;SDS011;30743;52.008;5.644;2024-03-07T08:52:21;9.77;;;7.97;;
45007;SDS011;30743;52.008;5.644;2024-03-07T08:54:47;8.80;;;7.60;;
45007;SDS011;30743;52.008;5.644;2024-03-07T08:57:13;9.93;;;7.85;;
45007;SDS011;30743;52.008;5.644;2024-03-07T08:59:42;10.18;;;8.45;;
45007;SDS011;30743;52.008;5.644;2024-03-07T09:02:08;9.55;;;8.43;;
45007;SDS011;30743;52.008;5.644;2024-03-07T09:04:35;10.65;;;8.30;;
45007;SDS011;30743;52.008;5.644;2024-03-07T09:07:01;11.35;;;7.88;;
45007;SDS011;30743;52.008;5.644;2024-03-07T09:09:26;10.68;;;8.40;;
45007;SDS011;30743;52.008;5.644;2024-03-07T09:11:52;10.27;;;8.40;;
45007;SDS011;30743;52.008;5.644;2024-03-07T09:14:17;8.63;;;7.65;;
45007;SDS011;30743;52.008;5.644;2024-03-07T09:16:43;10.07;;;7.65;;
45007;SDS011;30743;52.008;5.644;2024-03-07T09:19:09;9.35;;;7.50;;
45007;SDS011;30743;52.008;5.644;2024-03-07T09:21:39;10.25;;;8.18;;
45007;SDS011;30743;52.008;5.644;2024-03-07T09:24:08;10.02;;;7.97;;
45007;SDS011;30743;52.008;5.644;2024-03-07T09:26:33;9.95;;;8.15;;
45007;SDS011;30743;52.008;5.644;2024-03-07T09:28:59;9.50;;;7.82;;
45007;SDS011;30743;52.008;5.644;2024-03-07T09:31:30;10.20;;;8.30;;
45007;SDS011;30743;52.008;5.644;2024-03-07T09:33:59;8.27;;;7.43;;
45007;SDS011;30743;52.008;5.644;2024-03-07T09:36:25;8.75;;;7.18;;
45007;SDS011;30743;52.008;5.644;2024-03-07T09:38:51;10.90;;;7.47;;
45007;SDS011;30743;52.008;5.644;2024-03-07T09:41:16;9.25;;;7.57;;
45007;SDS011;30743;52.008;5.644;2024-03-07T09:43:46;8.88;;;7.15;;
45007;SDS011;30743;52.008;5.644;2024-03-07T09:46:13;9.02;;;7.53;;
45007;SDS011;30743;52.008;5.644;2024-03-07T09:48:39;8.63;;;7.63;;
45007;SDS011;30743;52.008;5.644;2024-03-07T09:51:05;9.05;;;6.93;;
45007;SDS011;30743;52.008;5.644;2024-03-07T09:56:01;8.43;;;7.03;;
45007;SDS011;30743;52.008;5.644;2024-03-07T09:58:29;8.23;;;7.22;;
45007;SDS011;30743;52.008;5.644;2024-03-07T10:00:58;8.50;;;7.20;;
45007;SDS011;30743;52.008;5.644;2024-03-07T10:03:25;7.72;;;6.75;;
45007;SDS011;30743;52.008;5.644;2024-03-07T10:05:54;7.75;;;6.75;;
45007;SDS011;30743;52.008;5.644;2024-03-07T10:08:21;8.27;;;6.93;;
45007;SDS011;30743;52.008;5.644;2024-03-07T10:10:47;7.30;;;6.32;;
45007;SDS011;30743;52.008;5.644;2024-03-07T10:13:14;7.45;;;6.53;;
45007;SDS011;30743;52.008;5.644;2024-03-07T10:15:39;7.32;;;6.55;;
45007;SDS011;30743;52.008;5.644;2024-03-07T10:18:08;8.90;;;8.00;;
45007;SDS011;30743;52.008;5.644;2024-03-07T10:20:38;8.10;;;7.30;;
45007;SDS011;30743;52.008;5.644;2024-03-07T10:23:04;8.90;;;7.05;;
45007;SDS011;30743;52.008;5.644;2024-03-07T10:25:32;7.72;;;6.93;;
45007;SDS011;30743;52.008;5.644;2024-03-07T10:27:58;8.23;;;7.38;;
45007;SDS011;30743;52.008;5.644;2024-03-07T10:30:27;9.50;;;6.97;;
45007;SDS011;30743;52.008;5.644;2024-03-07T10:32:59;8.15;;;7.00;;
45007;SDS011;30743;52.008;5.644;2024-03-07T10:35:24;7.65;;;6.47;;
45007;SDS011;30743;52.008;5.644;2024-03-07T10:37:53;7.90;;;6.90;;
45007;SDS011;30743;52.008;5.644;2024-03-07T10:40:20;9.07;;;7.35;;
45007;SDS011;30743;52.008;5.644;2024-03-07T10:42:47;9.05;;;7.20;;
45007;SDS011;30743;52.008;5.644;2024-03-07T10:45:17;9.18;;;7.88;;
45007;SDS011;30743;52.008;5.644;2024-03-07T10:47:52;10.48;;;7.35;;
45007;SDS011;30743;52.008;5.644;2024-03-07T10:55:46;8.38;;;6.93;;
45007;SDS011;30743;52.008;5.644;2024-03-07T10:58:27;9.13;;;7.38;;
45007;SDS011;30743;52.008;5.644;2024-03-07T11:01:07;9.60;;;7.45;;
45007;SDS011;30743;52.008;5.644;2024-03-07T11:03:38;8.23;;;7.15;;
45007;SDS011;30743;52.008;5.644;2024-03-07T11:06:06;10.68;;;7.97;;
45007;SDS011;30743;52.008;5.644;2024-03-07T11:08:36;8.57;;;7.68;;
45007;SDS011;30743;52.008;5.644;2024-03-07T11:11:03;8.18;;;7.35;;
45007;SDS011;30743;52.008;5.644;2024-03-07T11:13:29;8.43;;;7.47;;
45007;SDS011;30743;52.008;5.644;2024-03-07T11:15:55;8.77;;;7.32;;
45007;SDS011;30743;52.008;5.644;2024-03-07T11:18:25;10.05;;;7.43;;
45007;SDS011;30743;52.008;5.644;2024-03-07T11:20:51;9.07;;;7.45;;
45007;SDS011;30743;52.008;5.644;2024-03-07T11:23:32;10.07;;;7.97;;
45007;SDS011;30743;52.008;5.644;2024-03-07T11:28:32;8.95;;;7.25;;
45007;SDS011;30743;52.008;5.644;2024-03-07T11:33:41;10.85;;;7.70;;
45007;SDS011;30743;52.008;5.644;2024-03-07T11:36:08;8.38;;;6.88;;
45007;SDS011;30743;52.008;5.644;2024-03-07T11:38:36;10.07;;;7.78;;
45007;SDS011;30743;52.008;5.644;2024-03-07T11:41:09;10.43;;;8.40;;
45007;SDS011;30743;52.008;5.644;2024-03-07T11:43:38;16.60;;;7.72;;
45007;SDS011;30743;52.008;5.644;2024-03-07T11:46:05;10.50;;;7.68;;
45007;SDS011;30743;52.008;5.644;2024-03-07T11:48:38;8.77;;;7.60;;
45007;SDS011;30743;52.008;5.644;2024-03-07T11:51:06;8.80;;;7.32;;
45007;SDS011;30743;52.008;5.644;2024-03-07T11:53:35;15.40;;;8.25;;
45007;SDS011;30743;52.008;5.644;2024-03-07T11:56:03;9.18;;;7.35;;
45007;SDS011;30743;52.008;5.644;2024-03-07T11:58:37;9.98;;;7.53;;
45007;SDS011;30743;52.008;5.644;2024-03-07T12:01:05;10.15;;;7.82;;
45007;SDS011;30743;52.008;5.644;2024-03-07T12:03:35;9.40;;;8.10;;
45007;SDS011;30743;52.008;5.644;2024-03-07T12:06:02;7.82;;;6.93;;
45007;SDS011;30743;52.008;5.644;2024-03-07T12:08:28;8.32;;;6.80;;
45007;SDS011;30743;52.008;5.644;2024-03-07T12:10:54;9.55;;;7.63;;
45007;SDS011;30743;52.008;5.644;2024-03-07T12:13:21;11.57;;;7.50;;
45007;SDS011;30743;52.008;5.644;2024-03-07T12:15:47;8.60;;;7.38;;
45007;SDS011;30743;52.008;5.644;2024-03-07T12:18:16;8.57;;;7.30;;
45007;SDS011;30743;52.008;5.644;2024-03-07T12:20:42;8.75;;;7.55;;
45007;SDS011;30743;52.008;5.644;2024-03-07T12:23:15;8.98;;;7.50;;
45007;SDS011;30743;52.008;5.644;2024-03-07T12:25:44;10.60;;;7.88;;
45007;SDS011;30743;52.008;5.644;2024-03-07T12:28:11;8.25;;;7.32;;
45007;SDS011;30743;52.008;5.644;2024-03-07T12:30:51;8.27;;;6.88;;
45007;SDS011;30743;52.008;5.644;2024-03-07T12:33:19;9.13;;;7.50;;
45007;SDS011;30743;52.008;5.644;2024-03-07T12:35:49;8.00;;;7.07;;
45007;SDS011;30743;52.008;5.644;2024-03-07T12:38:17;7.53;;;6.32;;
45007;SDS011;30743;52.008;5.644;2024-03-07T12:40:43;8.63;;;7.05;;
45007;SDS011;30743;52.008;5.644;2024-03-07T12:43:14;8.23;;;7.05;;
45007;SDS011;30743;52.008;5.644;2024-03-07T12:48:16;8.32;;;6.70;;
45007;SDS011;30743;52.008;5.644;2024-03-07T12:50:45;8.60;;;6.85;;
45007;SDS011;30743;52.008;5.644;2024-03-07T12:53:11;7.57;;;5.95;;
45007;SDS011;30743;52.008;5.644;2024-03-07T12:55:40;9.57;;;6.75;;
45007;SDS011;30743;52.008;5.644;2024-03-07T12:58:07;6.65;;;5.95;;
45007;SDS011;30743;52.008;5.644;2024-03-07T13:00:34;7.97;;;6.15;;
45007;SDS011;30743;52.008;5.644;2024-03-07T13:03:00;8.02;;;6.70;;
45007;SDS011;30743;52.008;5.644;2024-03-07T13:05:26;8.73;;;7.05;;
45007;SDS011;30743;52.008;5.644;2024-03-07T13:07:52;7.82;;;6.05;;
45007;SDS011;30743;52.008;5.644;2024-03-07T13:10:18;8.48;;;6.18;;
45007;SDS011;30743;52.008;5.644;2024-03-07T13:12:44;7.55;;;6.35;;
45007;SDS011;30743;52.008;5.644;2024-03-07T13:15:14;7.50;;;6.55;;
45007;SDS011;30743;52.008;5.644;2024-03-07T13:17:40;8.43;;;6.80;;
45007;SDS011;30743;52.008;5.644;2024-03-07T13:20:08;9.43;;;6.95;;
45007;SDS011;30743;52.008;5.644;2024-03-07T13:22:38;8.27;;;7.13;;
45007;SDS011;30743;52.008;5.644;2024-03-07T13:25:03;10.20;;;8.18;;
45007;SDS011;30743;52.008;5.644;2024-03-07T13:27:39;10.40;;;7.72;;
45007;SDS011;30743;52.008;5.644;2024-03-07T13:30:06;9.65;;;8.20;;
45007;SDS011;30743;52.008;5.644;2024-03-07T13:32:32;10.70;;;7.80;;
45007;SDS011;30743;52.008;5.644;2024-03-07T13:34:58;10.45;;;8.70;;
45007;SDS011;30743;52.008;5.644;2024-03-07T13:37:26;11.93;;;8.80;;
45007;SDS011;30743;52.008;5.644;2024-03-07T13:39:52;10.57;;;8.02;;
45007;SDS011;30743;52.008;5.644;2024-03-07T13:42:17;9.80;;;7.75;;
45007;SDS011;30743;52.008;5.644;2024-03-07T13:44:43;9.63;;;6.70;;
45007;SDS011;30743;52.008;5.644;2024-03-07T13:47:09;11.88;;;7.13;;
45007;SDS011;30743;52.008;5.644;2024-03-07T13:49:35;7.50;;;6.55;;
45007;SDS011;30743;52.008;5.644;2024-03-07T13:52:03;7.53;;;6.72;;
45007;SDS011;30743;52.008;5.644;2024-03-07T13:54:35;7.30;;;6.45;;
45007;SDS011;30743;52.008;5.644;2024-03-07T14:00:25;9.18;;;7.95;;
45007;SDS011;30743;52.008;5.644;2024-03-07T14:06:02;7.30;;;6.53;;
45007;SDS011;30743;52.008;5.644;2024-03-07T14:08:54;8.70;;;7.63;;
45007;SDS011;30743;52.008;5.644;2024-03-07T14:11:49;8.57;;;7.03;;
45007;SDS011;30743;52.008;5.644;2024-03-07T14:32:46;10.48;;;8.02;;
45007;SDS011;30743;52.008;5.644;2024-03-07T14:38:06;10.48;;;7.32;;
45007;SDS011;30743;52.008;5.644;2024-03-07T14:40:50;10.10;;;7.60;;
45007;SDS011;30743;52.008;5.644;2024-03-07T14:43:18;8.82;;;7.03;;
45007;SDS011;30743;52.008;5.644;2024-03-07T14:45:44;9.77;;;6.95;;
45007;SDS011;30743;52.008;5.644;2024-03-07T14:48:11;9.73;;;6.75;;
45007;SDS011;30743;52.008;5.644;2024-03-07T14:50:41;8.68;;;6.68;;
45007;SDS011;30743;52.008;5.644;2024-03-07T14:53:09;9.82;;;7.60;;
45007;SDS011;30743;52.008;5.644;2024-03-07T14:55:37;11.13;;;7.55;;
45007;SDS011;30743;52.008;5.644;2024-03-07T14:58:04;10.63;;;7.28;;
45007;SDS011;30743;52.008;5.644;2024-03-07T15:00:34;11.30;;;7.85;;
45007;SDS011;30743;52.008;5.644;2024-03-07T15:03:07;9.93;;;7.28;;
45007;SDS011;30743;52.008;5.644;2024-03-07T15:05:35;9.27;;;7.22;;
45007;SDS011;30743;52.008;5.644;2024-03-07T15:08:01;9.98;;;7.78;;
45007;SDS011;30743;52.008;5.644;2024-03-07T15:10:28;9.40;;;7.10;;
45007;SDS011;30743;52.008;5.644;2024-03-07T15:12:59;8.95;;;7.07;;
45007;SDS011;30743;52.008;5.644;2024-03-07T15:15:25;8.93;;;7.20;;
45007;SDS011;30743;52.008;5.644;2024-03-07T15:17:53;9.23;;;7.38;;
45007;SDS011;30743;52.008;5.644;2024-03-07T15:20:19;9.70;;;7.22;;